Rockfield, Wisconsin
Current Conditions -  °F | °C
As of 6:45 PM on Friday 31 Oct 2014 (Local Time) from KMWC Reporting Station
Broken Clouds Broken Clouds  
Wind Chill: 25°   Ceiling: 5000
Heat Index: 36°   Visibility: 10mi
Dew Point: 16°   Wind: 20mph
Humidity: 44%   Direction: 360°N
Pressure: 30.37"   Gusts: 29mph
Location:  43.2326°N, 88.1158°W
Report Text: KMWC 312345Z AUTO 36017G25KT 10SM BKN050 02/M09 A3037
Loading
Personal Weather Stations






























Interactive Weather Map
Tropical Storm Tracking
New forecast layout! Learn more

10-Day Weather Forecast

Advertisements
Track Severe Weather on mobile